BVX171 CYYC-CYYJ
Flight info
| Callsign | BVX171 |
|---|---|
| Flight time | 1h 11m |
| Altitude | 38000 |
| Route | BOTAG Q894 BOOTH APASS8 |
| Aircraft | B738/M-SDE2E3FGHIRWXY/LB1 |
Departure
| Time | 2026-04-28 16:39 |
|---|---|
| Airport | Calgary International Airport (CYYC) |
Arrival
| Time | 2026-04-28 17:51 |
|---|---|
| Airport | Victoria International Airport (CYYJ) |
| Time | Latitude | Longitude | Altitude | Speed | Heading |
|---|---|---|---|---|---|
| 2026-04-28 16:02 | 51.12899 | -114.01194 | 3558 ft | 0 kts | 340° |
| 2026-04-28 16:17 | 51.12900 | -114.01195 | 3549 ft | 0 kts | 340° |
| 2026-04-28 16:17 | 51.12899 | -114.01194 | 3549 ft | 0 kts | 340° |
| 2026-04-28 16:28 | 51.12895 | -114.01192 | 3549 ft | 3 kts | 339° |
| 2026-04-28 16:28 | 51.12871 | -114.01175 | 3557 ft | 4 kts | 331° |
| 2026-04-28 16:28 | 51.12848 | -114.01152 | 3558 ft | 4 kts | 322° |
| 2026-04-28 16:29 | 51.12810 | -114.01092 | 3558 ft | 4 kts | 306° |
| 2026-04-28 16:29 | 51.12785 | -114.01028 | 3556 ft | 0 kts | 305° |
| 2026-04-28 16:31 | 51.12787 | -114.01032 | 3556 ft | 1 kts | 305° |
| 2026-04-28 16:32 | 51.12802 | -114.01067 | 3558 ft | 6 kts | 306° |
| 2026-04-28 16:32 | 51.12770 | -114.01226 | 3558 ft | 11 kts | 221° |
| 2026-04-28 16:32 | 51.12708 | -114.01312 | 3556 ft | 13 kts | 221° |
| 2026-04-28 16:33 | 51.12635 | -114.01414 | 3557 ft | 16 kts | 221° |
| 2026-04-28 16:33 | 51.12576 | -114.01495 | 3556 ft | 17 kts | 221° |
| 2026-04-28 16:33 | 51.12448 | -114.01569 | 3558 ft | 16 kts | 179° |
| 2026-04-28 16:33 | 51.12317 | -114.01568 | 3558 ft | 21 kts | 180° |
| 2026-04-28 16:34 | 51.12162 | -114.01581 | 3558 ft | 21 kts | 193° |
| 2026-04-28 16:34 | 51.12033 | -114.01681 | 3558 ft | 21 kts | 210° |
| 2026-04-28 16:34 | 51.11908 | -114.01789 | 3557 ft | 20 kts | 195° |
| 2026-04-28 16:34 | 51.11772 | -114.01797 | 3558 ft | 21 kts | 180° |
| 2026-04-28 16:35 | 51.11613 | -114.01796 | 3558 ft | 25 kts | 180° |
| 2026-04-28 16:35 | 51.11421 | -114.01795 | 3556 ft | 28 kts | 180° |
| 2026-04-28 16:35 | 51.11232 | -114.01797 | 3558 ft | 26 kts | 180° |
| 2026-04-28 16:35 | 51.11046 | -114.01798 | 3558 ft | 28 kts | 181° |
| 2026-04-28 16:36 | 51.10843 | -114.01797 | 3558 ft | 30 kts | 180° |
| 2026-04-28 16:36 | 51.10637 | -114.01798 | 3558 ft | 29 kts | 180° |
| 2026-04-28 16:36 | 51.10442 | -114.01798 | 3559 ft | 27 kts | 180° |
| 2026-04-28 16:36 | 51.10263 | -114.01799 | 3558 ft | 25 kts | 180° |
| 2026-04-28 16:37 | 51.10093 | -114.01799 | 3557 ft | 23 kts | 180° |
| 2026-04-28 16:37 | 51.09916 | -114.01799 | 3558 ft | 28 kts | 180° |
| 2026-04-28 16:37 | 51.09749 | -114.01798 | 3557 ft | 13 kts | 179° |
| 2026-04-28 16:38 | 51.09691 | -114.01992 | 3559 ft | 11 kts | 270° |
| 2026-04-28 16:38 | 51.09695 | -114.02111 | 3560 ft | 11 kts | 296° |
| 2026-04-28 16:38 | 51.09765 | -114.02139 | 3560 ft | 13 kts | 0° |
| 2026-04-28 16:38 | 51.09997 | -114.02138 | 3557 ft | 65 kts | 0° |
| 2026-04-28 16:39 | 51.10676 | -114.02137 | 3556 ft | 127 kts | 0° |
| 2026-04-28 16:39 | 51.11718 | -114.02129 | 3623 ft | 170 kts | 359° |
| 2026-04-28 16:39 | 51.12940 | -114.02101 | 4283 ft | 176 kts | 359° |
| 2026-04-28 16:39 | 51.14113 | -114.02166 | 5346 ft | 165 kts | 355° |
| 2026-04-28 16:40 | 51.15301 | -114.02331 | 5878 ft | 184 kts | 343° |
| 2026-04-28 16:40 | 51.16346 | -114.03601 | 6085 ft | 209 kts | 300° |
| 2026-04-28 16:40 | 51.16568 | -114.05997 | 6322 ft | 237 kts | 262° |
| 2026-04-28 16:40 | 51.16114 | -114.08670 | 6595 ft | 263 kts | 256° |
| 2026-04-28 16:41 | 51.15574 | -114.11507 | 7296 ft | 270 kts | 257° |
| 2026-04-28 16:41 | 51.15033 | -114.14377 | 8168 ft | 271 kts | 258° |
| 2026-04-28 16:41 | 51.14509 | -114.17231 | 9039 ft | 272 kts | 259° |
| 2026-04-28 16:41 | 51.13988 | -114.20143 | 9919 ft | 274 kts | 260° |
| 2026-04-28 16:42 | 51.13468 | -114.23119 | 10467 ft | 288 kts | 260° |
| 2026-04-28 16:42 | 51.12920 | -114.26330 | 10665 ft | 312 kts | 259° |
| 2026-04-28 16:42 | 51.12335 | -114.29757 | 11140 ft | 325 kts | 259° |
| 2026-04-28 16:42 | 51.11743 | -114.33212 | 11833 ft | 331 kts | 259° |
| 2026-04-28 16:43 | 51.11135 | -114.36762 | 12605 ft | 335 kts | 259° |
| 2026-04-28 16:43 | 51.10517 | -114.40375 | 13345 ft | 340 kts | 258° |
| 2026-04-28 16:43 | 51.09890 | -114.44049 | 14050 ft | 347 kts | 258° |
| 2026-04-28 16:43 | 51.09251 | -114.47782 | 14803 ft | 350 kts | 258° |
| 2026-04-28 16:44 | 51.08608 | -114.51538 | 15588 ft | 353 kts | 258° |
| 2026-04-28 16:44 | 51.07966 | -114.55286 | 16345 ft | 357 kts | 258° |
| 2026-04-28 16:44 | 51.07307 | -114.59122 | 17100 ft | 361 kts | 258° |
| 2026-04-28 16:44 | 51.06653 | -114.63008 | 17843 ft | 365 kts | 259° |
| 2026-04-28 16:45 | 51.06043 | -114.66962 | 18553 ft | 369 kts | 260° |
| 2026-04-28 16:45 | 51.05447 | -114.70905 | 19201 ft | 372 kts | 259° |
| 2026-04-28 16:45 | 51.04832 | -114.74925 | 19866 ft | 375 kts | 259° |
| 2026-04-28 16:45 | 51.04206 | -114.78970 | 20518 ft | 378 kts | 259° |
| 2026-04-28 16:46 | 51.03559 | -114.83061 | 21154 ft | 382 kts | 258° |
| 2026-04-28 16:46 | 51.02904 | -114.87121 | 21777 ft | 385 kts | 258° |
| 2026-04-28 16:46 | 51.02232 | -114.91263 | 22410 ft | 388 kts | 258° |
| 2026-04-28 16:46 | 51.01552 | -114.95440 | 23019 ft | 392 kts | 258° |
| 2026-04-28 16:47 | 51.00866 | -114.99649 | 23617 ft | 395 kts | 258° |
| 2026-04-28 16:47 | 51.00173 | -115.03897 | 24111 ft | 399 kts | 258° |
| 2026-04-28 16:47 | 50.99474 | -115.08177 | 24600 ft | 402 kts | 258° |
| 2026-04-28 16:47 | 50.98778 | -115.12428 | 25067 ft | 405 kts | 258° |
| 2026-04-28 16:48 | 50.98065 | -115.16779 | 25543 ft | 408 kts | 259° |
| 2026-04-28 16:48 | 50.97345 | -115.21161 | 25996 ft | 411 kts | 259° |
| 2026-04-28 16:48 | 50.96619 | -115.25567 | 26457 ft | 415 kts | 259° |
| 2026-04-28 16:48 | 50.95884 | -115.30015 | 26941 ft | 417 kts | 259° |
| 2026-04-28 16:49 | 50.95153 | -115.34427 | 27374 ft | 420 kts | 261° |
| 2026-04-28 16:49 | 50.94405 | -115.38933 | 27794 ft | 424 kts | 261° |
| 2026-04-28 16:49 | 50.93650 | -115.43472 | 28220 ft | 426 kts | 261° |
| 2026-04-28 16:49 | 50.92889 | -115.48031 | 28665 ft | 428 kts | 261° |
| 2026-04-28 16:50 | 50.92131 | -115.52552 | 29069 ft | 431 kts | 261° |
| 2026-04-28 16:50 | 50.91358 | -115.57162 | 29470 ft | 434 kts | 261° |
| 2026-04-28 16:50 | 50.90579 | -115.61796 | 29865 ft | 436 kts | 261° |
| 2026-04-28 16:50 | 50.89792 | -115.66465 | 30224 ft | 439 kts | 261° |
| 2026-04-28 16:51 | 50.88999 | -115.71150 | 30535 ft | 442 kts | 261° |
| 2026-04-28 16:51 | 50.88200 | -115.75858 | 30831 ft | 443 kts | 262° |
| 2026-04-28 16:51 | 50.87407 | -115.80520 | 31142 ft | 445 kts | 262° |
| 2026-04-28 16:51 | 50.86595 | -115.85278 | 31456 ft | 447 kts | 262° |
| 2026-04-28 16:52 | 50.85782 | -115.90026 | 31790 ft | 447 kts | 262° |
| 2026-04-28 16:52 | 50.84965 | -115.94779 | 32185 ft | 446 kts | 262° |
| 2026-04-28 16:52 | 50.84150 | -115.99512 | 32649 ft | 443 kts | 262° |
| 2026-04-28 16:52 | 50.83347 | -116.04155 | 33099 ft | 441 kts | 262° |
| 2026-04-28 16:53 | 50.82535 | -116.08849 | 33507 ft | 441 kts | 262° |
| 2026-04-28 16:53 | 50.81726 | -116.13521 | 33906 ft | 440 kts | 262° |
| 2026-04-28 16:53 | 50.80916 | -116.18181 | 34280 ft | 438 kts | 262° |
| 2026-04-28 16:53 | 50.80116 | -116.22778 | 34561 ft | 438 kts | 262° |
| 2026-04-28 16:54 | 50.79304 | -116.27429 | 34816 ft | 439 kts | 261° |
| 2026-04-28 16:54 | 50.78488 | -116.32091 | 35068 ft | 440 kts | 261° |
| 2026-04-28 16:54 | 50.77669 | -116.36762 | 35356 ft | 440 kts | 261° |
| 2026-04-28 16:54 | 50.77127 | -116.39846 | 35545 ft | 440 kts | 261° |
| 2026-04-28 16:55 | 50.76037 | -116.46024 | 35917 ft | 440 kts | 260° |
| 2026-04-28 16:55 | 50.75188 | -116.50675 | 36179 ft | 442 kts | 259° |
| 2026-04-28 16:55 | 50.74298 | -116.55322 | 36486 ft | 442 kts | 258° |
| 2026-04-28 16:55 | 50.73388 | -116.59968 | 36782 ft | 442 kts | 258° |
| 2026-04-28 16:56 | 50.72474 | -116.64610 | 37006 ft | 442 kts | 258° |
| 2026-04-28 16:56 | 50.71571 | -116.69193 | 37292 ft | 442 kts | 258° |
| 2026-04-28 16:56 | 50.70659 | -116.73824 | 37536 ft | 442 kts | 258° |
| 2026-04-28 16:56 | 50.69748 | -116.78460 | 37755 ft | 443 kts | 258° |
| 2026-04-28 16:57 | 50.68835 | -116.83105 | 38000 ft | 442 kts | 257° |
| 2026-04-28 16:57 | 50.67922 | -116.87742 | 38271 ft | 443 kts | 257° |
| 2026-04-28 16:57 | 50.67007 | -116.92388 | 38511 ft | 443 kts | 257° |
| 2026-04-28 16:57 | 50.66090 | -116.97033 | 38738 ft | 444 kts | 257° |
| 2026-04-28 16:58 | 50.65172 | -117.01668 | 38960 ft | 443 kts | 257° |
| 2026-04-28 16:58 | 50.64262 | -117.06259 | 39096 ft | 444 kts | 257° |
| 2026-04-28 16:58 | 50.63339 | -117.10898 | 39219 ft | 443 kts | 257° |
| 2026-04-28 16:58 | 50.62414 | -117.15530 | 39358 ft | 442 kts | 257° |
| 2026-04-28 16:59 | 50.61489 | -117.20157 | 39536 ft | 442 kts | 257° |
| 2026-04-28 16:59 | 50.59645 | -117.29364 | 39804 ft | 443 kts | 257° |
| 2026-04-28 16:59 | 50.58715 | -117.33981 | 40027 ft | 442 kts | 257° |
| 2026-04-28 17:00 | 50.57783 | -117.38603 | 40155 ft | 443 kts | 257° |
| 2026-04-28 17:00 | 50.55921 | -117.47799 | 40143 ft | 444 kts | 256° |
| 2026-04-28 17:01 | 50.54037 | -117.57062 | 40133 ft | 442 kts | 257° |
| 2026-04-28 17:01 | 50.52156 | -117.66266 | 40130 ft | 443 kts | 256° |
| 2026-04-28 17:02 | 50.50266 | -117.75482 | 40142 ft | 449 kts | 256° |
| 2026-04-28 17:02 | 50.48326 | -117.84895 | 40139 ft | 455 kts | 256° |
| 2026-04-28 17:03 | 50.45371 | -117.99130 | 40111 ft | 460 kts | 256° |
| 2026-04-28 17:03 | 50.43388 | -118.08622 | 40127 ft | 460 kts | 256° |
| 2026-04-28 17:04 | 50.40372 | -118.22984 | 40106 ft | 462 kts | 256° |
| 2026-04-28 17:05 | 50.37354 | -118.37253 | 40109 ft | 462 kts | 256° |
| 2026-04-28 17:06 | 50.34315 | -118.51519 | 40109 ft | 460 kts | 256° |
| 2026-04-28 17:06 | 50.31258 | -118.65774 | 40112 ft | 459 kts | 256° |
| 2026-04-28 17:07 | 50.29229 | -118.75176 | 40110 ft | 458 kts | 256° |
| 2026-04-28 17:07 | 50.27184 | -118.84614 | 40092 ft | 457 kts | 256° |
| 2026-04-28 17:08 | 50.25147 | -118.93971 | 40096 ft | 456 kts | 256° |
| 2026-04-28 17:08 | 50.23097 | -119.03343 | 40087 ft | 455 kts | 256° |
| 2026-04-28 17:09 | 50.21044 | -119.12691 | 40092 ft | 454 kts | 255° |
| 2026-04-28 17:09 | 50.18994 | -119.21980 | 40076 ft | 455 kts | 255° |
| 2026-04-28 17:10 | 50.16926 | -119.31312 | 40079 ft | 454 kts | 255° |
| 2026-04-28 17:10 | 50.14868 | -119.40557 | 40085 ft | 453 kts | 255° |
| 2026-04-28 17:11 | 50.12793 | -119.49834 | 40083 ft | 453 kts | 255° |
| 2026-04-28 17:11 | 50.10713 | -119.59093 | 40090 ft | 453 kts | 255° |
| 2026-04-28 17:12 | 50.08639 | -119.68284 | 40087 ft | 452 kts | 255° |
| 2026-04-28 17:12 | 50.06543 | -119.77534 | 40091 ft | 452 kts | 255° |
| 2026-04-28 17:13 | 50.04445 | -119.86756 | 40093 ft | 452 kts | 255° |
| 2026-04-28 17:13 | 50.02350 | -119.95919 | 40098 ft | 452 kts | 255° |
| 2026-04-28 17:14 | 50.00235 | -120.05133 | 40071 ft | 452 kts | 255° |
| 2026-04-28 17:14 | 49.98130 | -120.14264 | 40090 ft | 452 kts | 255° |
| 2026-04-28 17:15 | 49.96000 | -120.23461 | 40103 ft | 451 kts | 255° |
| 2026-04-28 17:15 | 49.93877 | -120.32590 | 40108 ft | 452 kts | 254° |
| 2026-04-28 17:16 | 49.91729 | -120.41789 | 40108 ft | 452 kts | 254° |
| 2026-04-28 17:16 | 49.89619 | -120.50771 | 40095 ft | 437 kts | 254° |
| 2026-04-28 17:17 | 49.87537 | -120.59602 | 40095 ft | 433 kts | 255° |
| 2026-04-28 17:17 | 49.86501 | -120.63995 | 39919 ft | 436 kts | 255° |
| 2026-04-28 17:17 | 49.85455 | -120.68427 | 39544 ft | 435 kts | 255° |
| 2026-04-28 17:18 | 49.84429 | -120.72752 | 39128 ft | 432 kts | 255° |
| 2026-04-28 17:18 | 49.83392 | -120.77110 | 38750 ft | 429 kts | 255° |
| 2026-04-28 17:18 | 49.82360 | -120.81441 | 38244 ft | 426 kts | 255° |
| 2026-04-28 17:18 | 49.81337 | -120.85725 | 37849 ft | 421 kts | 255° |
| 2026-04-28 17:19 | 49.80326 | -120.89945 | 37459 ft | 416 kts | 255° |
| 2026-04-28 17:19 | 49.79338 | -120.94065 | 37096 ft | 412 kts | 255° |
| 2026-04-28 17:19 | 49.78340 | -120.98224 | 36726 ft | 408 kts | 256° |
| 2026-04-28 17:19 | 49.77368 | -121.02272 | 36392 ft | 402 kts | 256° |
| 2026-04-28 17:20 | 49.76394 | -121.06314 | 36028 ft | 399 kts | 256° |
| 2026-04-28 17:20 | 49.75751 | -121.08978 | 35773 ft | 397 kts | 256° |
| 2026-04-28 17:20 | 49.74465 | -121.14299 | 35304 ft | 392 kts | 256° |
| 2026-04-28 17:20 | 49.73509 | -121.18248 | 34955 ft | 389 kts | 256° |
| 2026-04-28 17:21 | 49.72572 | -121.22112 | 34587 ft | 387 kts | 256° |
| 2026-04-28 17:21 | 49.71630 | -121.25987 | 34238 ft | 384 kts | 257° |
| 2026-04-28 17:21 | 49.70690 | -121.29846 | 33848 ft | 382 kts | 256° |
| 2026-04-28 17:22 | 49.68839 | -121.37433 | 33115 ft | 376 kts | 256° |
| 2026-04-28 17:22 | 49.67920 | -121.41192 | 32781 ft | 373 kts | 256° |
| 2026-04-28 17:22 | 49.67004 | -121.44930 | 32427 ft | 371 kts | 256° |
| 2026-04-28 17:23 | 49.65189 | -121.52316 | 31748 ft | 366 kts | 256° |
| 2026-04-28 17:23 | 49.64285 | -121.55974 | 31394 ft | 364 kts | 256° |
| 2026-04-28 17:23 | 49.63389 | -121.59607 | 31079 ft | 362 kts | 256° |
| 2026-04-28 17:23 | 49.62505 | -121.63190 | 30746 ft | 361 kts | 255° |
| 2026-04-28 17:24 | 49.61613 | -121.66800 | 30403 ft | 360 kts | 255° |
| 2026-04-28 17:24 | 49.60722 | -121.70395 | 30021 ft | 359 kts | 255° |
| 2026-04-28 17:24 | 49.59832 | -121.73982 | 29633 ft | 357 kts | 255° |
| 2026-04-28 17:24 | 49.58946 | -121.77546 | 29298 ft | 354 kts | 255° |
| 2026-04-28 17:25 | 49.58064 | -121.81084 | 28928 ft | 352 kts | 255° |
| 2026-04-28 17:25 | 49.56328 | -121.88039 | 28216 ft | 347 kts | 255° |
| 2026-04-28 17:25 | 49.55462 | -121.91499 | 27871 ft | 345 kts | 255° |
| 2026-04-28 17:26 | 49.54600 | -121.94946 | 27537 ft | 343 kts | 254° |
| 2026-04-28 17:26 | 49.53744 | -121.98355 | 27199 ft | 341 kts | 254° |
| 2026-04-28 17:26 | 49.52899 | -122.01717 | 26868 ft | 339 kts | 254° |
| 2026-04-28 17:26 | 49.52023 | -122.05080 | 26525 ft | 338 kts | 250° |
| 2026-04-28 17:27 | 49.50896 | -122.08264 | 26187 ft | 339 kts | 244° |
| 2026-04-28 17:27 | 49.49637 | -122.11347 | 25881 ft | 340 kts | 243° |
| 2026-04-28 17:27 | 49.48359 | -122.14412 | 25557 ft | 341 kts | 243° |
| 2026-04-28 17:27 | 49.47098 | -122.17474 | 25229 ft | 346 kts | 243° |
| 2026-04-28 17:28 | 49.45811 | -122.20649 | 24891 ft | 352 kts | 243° |
| 2026-04-28 17:28 | 49.43240 | -122.27065 | 24184 ft | 350 kts | 243° |
| 2026-04-28 17:28 | 49.41985 | -122.30207 | 23840 ft | 349 kts | 243° |
| 2026-04-28 17:29 | 49.40714 | -122.33389 | 23450 ft | 348 kts | 243° |
| 2026-04-28 17:29 | 49.39453 | -122.36545 | 23058 ft | 345 kts | 243° |
| 2026-04-28 17:29 | 49.38200 | -122.39684 | 22711 ft | 343 kts | 243° |
| 2026-04-28 17:30 | 49.35739 | -122.45844 | 22027 ft | 338 kts | 243° |
| 2026-04-28 17:30 | 49.33292 | -122.51959 | 21348 ft | 333 kts | 242° |
| 2026-04-28 17:30 | 49.32082 | -122.54976 | 21025 ft | 330 kts | 242° |
| 2026-04-28 17:31 | 49.30881 | -122.57973 | 20694 ft | 328 kts | 242° |
| 2026-04-28 17:31 | 49.28510 | -122.63870 | 20048 ft | 325 kts | 242° |
| 2026-04-28 17:32 | 49.26142 | -122.69733 | 19401 ft | 322 kts | 241° |
| 2026-04-28 17:32 | 49.24965 | -122.72641 | 19084 ft | 320 kts | 241° |
| 2026-04-28 17:32 | 49.23808 | -122.75498 | 18765 ft | 319 kts | 241° |
| 2026-04-28 17:32 | 49.22641 | -122.78376 | 18435 ft | 317 kts | 241° |
| 2026-04-28 17:33 | 49.21477 | -122.81247 | 17988 ft | 319 kts | 241° |
| 2026-04-28 17:33 | 49.20299 | -122.84149 | 17571 ft | 319 kts | 241° |
| 2026-04-28 17:33 | 49.19130 | -122.87024 | 17215 ft | 318 kts | 240° |
| 2026-04-28 17:33 | 49.18750 | -122.87957 | 17109 ft | 317 kts | 240° |
| 2026-04-28 17:34 | 49.16814 | -122.92711 | 16550 ft | 315 kts | 240° |
| 2026-04-28 17:34 | 49.15661 | -122.95538 | 16219 ft | 310 kts | 240° |
| 2026-04-28 17:34 | 49.14531 | -122.98305 | 15909 ft | 304 kts | 240° |
| 2026-04-28 17:34 | 49.13414 | -123.01039 | 15603 ft | 302 kts | 240° |
| 2026-04-28 17:35 | 49.12306 | -123.03752 | 15301 ft | 300 kts | 240° |
| 2026-04-28 17:35 | 49.11213 | -123.06425 | 14999 ft | 299 kts | 240° |
| 2026-04-28 17:35 | 49.10111 | -123.09113 | 14698 ft | 298 kts | 240° |
| 2026-04-28 17:35 | 49.09014 | -123.11786 | 14386 ft | 296 kts | 240° |
| 2026-04-28 17:36 | 49.07850 | -123.14336 | 14057 ft | 298 kts | 227° |
| 2026-04-28 17:36 | 49.06126 | -123.16139 | 13703 ft | 302 kts | 209° |
| 2026-04-28 17:36 | 49.04222 | -123.17493 | 13357 ft | 301 kts | 206° |
| 2026-04-28 17:36 | 49.02306 | -123.18780 | 13016 ft | 300 kts | 206° |
| 2026-04-28 17:37 | 49.00422 | -123.20043 | 12704 ft | 299 kts | 206° |
| 2026-04-28 17:37 | 48.98521 | -123.21331 | 12391 ft | 298 kts | 207° |
| 2026-04-28 17:37 | 48.96632 | -123.22621 | 12089 ft | 297 kts | 207° |
| 2026-04-28 17:37 | 48.94745 | -123.23918 | 11784 ft | 296 kts | 206° |
| 2026-04-28 17:38 | 48.92866 | -123.25215 | 11468 ft | 296 kts | 206° |
| 2026-04-28 17:38 | 48.91013 | -123.26495 | 11160 ft | 296 kts | 206° |
| 2026-04-28 17:38 | 48.89140 | -123.27788 | 10854 ft | 295 kts | 206° |
| 2026-04-28 17:38 | 48.87267 | -123.29084 | 10557 ft | 295 kts | 208° |
| 2026-04-28 17:39 | 48.85651 | -123.30916 | 10227 ft | 290 kts | 234° |
| 2026-04-28 17:39 | 48.84424 | -123.33320 | 10005 ft | 288 kts | 226° |
| 2026-04-28 17:39 | 48.81315 | -123.37111 | 9469 ft | 281 kts | 221° |
| 2026-04-28 17:40 | 48.79853 | -123.38998 | 9338 ft | 271 kts | 221° |
| 2026-04-28 17:40 | 48.78446 | -123.40845 | 9220 ft | 262 kts | 221° |
| 2026-04-28 17:40 | 48.77086 | -123.42640 | 9092 ft | 256 kts | 221° |
| 2026-04-28 17:40 | 48.76208 | -123.43815 | 9021 ft | 253 kts | 225° |
| 2026-04-28 17:41 | 48.75182 | -123.46847 | 8734 ft | 248 kts | 264° |
| 2026-04-28 17:41 | 48.75384 | -123.49442 | 8324 ft | 247 kts | 286° |
| 2026-04-28 17:41 | 48.75706 | -123.51134 | 8089 ft | 247 kts | 287° |
| 2026-04-28 17:41 | 48.76178 | -123.53572 | 7836 ft | 241 kts | 286° |
| 2026-04-28 17:42 | 48.76645 | -123.55999 | 7571 ft | 238 kts | 286° |
| 2026-04-28 17:42 | 48.77105 | -123.58411 | 7335 ft | 238 kts | 285° |
| 2026-04-28 17:42 | 48.77563 | -123.60829 | 7096 ft | 239 kts | 285° |
| 2026-04-28 17:42 | 48.78013 | -123.63221 | 6845 ft | 239 kts | 285° |
| 2026-04-28 17:43 | 48.78471 | -123.65641 | 6610 ft | 239 kts | 285° |
| 2026-04-28 17:43 | 48.78928 | -123.68071 | 6344 ft | 239 kts | 284° |
| 2026-04-28 17:43 | 48.79383 | -123.70494 | 6106 ft | 239 kts | 284° |
| 2026-04-28 17:43 | 48.79817 | -123.72928 | 5839 ft | 238 kts | 278° |
| 2026-04-28 17:44 | 48.79665 | -123.75296 | 5619 ft | 224 kts | 243° |
| 2026-04-28 17:44 | 48.78743 | -123.77069 | 5425 ft | 211 kts | 219° |
| 2026-04-28 17:44 | 48.77458 | -123.78113 | 5172 ft | 211 kts | 199° |
| 2026-04-28 17:44 | 48.76054 | -123.78748 | 4941 ft | 210 kts | 197° |
| 2026-04-28 17:45 | 48.74648 | -123.79331 | 4702 ft | 208 kts | 195° |
| 2026-04-28 17:45 | 48.73226 | -123.79367 | 4435 ft | 209 kts | 162° |
| 2026-04-28 17:45 | 48.72171 | -123.77987 | 4292 ft | 204 kts | 118° |
| 2026-04-28 17:45 | 48.71655 | -123.76065 | 4254 ft | 190 kts | 115° |
| 2026-04-28 17:46 | 48.71140 | -123.74278 | 4276 ft | 184 kts | 114° |
| 2026-04-28 17:46 | 48.70688 | -123.72450 | 4064 ft | 187 kts | 110° |
| 2026-04-28 17:46 | 48.70297 | -123.70588 | 3842 ft | 189 kts | 108° |
| 2026-04-28 17:46 | 48.69919 | -123.68673 | 3577 ft | 190 kts | 108° |
| 2026-04-28 17:47 | 48.69546 | -123.66738 | 3311 ft | 193 kts | 107° |
| 2026-04-28 17:47 | 48.69168 | -123.64780 | 3028 ft | 194 kts | 108° |
| 2026-04-28 17:47 | 48.68790 | -123.62807 | 2756 ft | 195 kts | 107° |
| 2026-04-28 17:47 | 48.68540 | -123.61501 | 2567 ft | 195 kts | 109° |
| 2026-04-28 17:48 | 48.68054 | -123.58967 | 2216 ft | 181 kts | 109° |
| 2026-04-28 17:48 | 48.67711 | -123.57180 | 1964 ft | 173 kts | 109° |
| 2026-04-28 17:48 | 48.67383 | -123.55468 | 1717 ft | 165 kts | 109° |
| 2026-04-28 17:48 | 48.67073 | -123.53844 | 1490 ft | 155 kts | 109° |
| 2026-04-28 17:49 | 48.66787 | -123.52354 | 1310 ft | 140 kts | 109° |
| 2026-04-28 17:49 | 48.66526 | -123.50993 | 1103 ft | 135 kts | 110° |
| 2026-04-28 17:49 | 48.66269 | -123.49646 | 896 ft | 132 kts | 107° |
| 2026-04-28 17:49 | 48.66016 | -123.48324 | 695 ft | 131 kts | 107° |
| 2026-04-28 17:50 | 48.65762 | -123.46985 | 518 ft | 133 kts | 107° |
| 2026-04-28 17:50 | 48.65514 | -123.45665 | 370 ft | 127 kts | 107° |
| 2026-04-28 17:50 | 48.65266 | -123.44383 | 176 ft | 132 kts | 107° |
| 2026-04-28 17:50 | 48.65023 | -123.43080 | 58 ft | 118 kts | 106° |
| 2026-04-28 17:51 | 48.64822 | -123.42046 | 50 ft | 82 kts | 106° |
| 2026-04-28 17:51 | 48.64705 | -123.41438 | 51 ft | 33 kts | 106° |
| 2026-04-28 17:51 | 48.64665 | -123.41280 | 55 ft | 12 kts | 133° |
| 2026-04-28 17:51 | 48.64594 | -123.41239 | 49 ft | 11 kts | 197° |
| 2026-04-28 17:52 | 48.64570 | -123.41340 | 54 ft | 11 kts | 281° |
| 2026-04-28 17:52 | 48.64589 | -123.41451 | 52 ft | 11 kts | 286° |
| 2026-04-28 17:52 | 48.64637 | -123.41684 | 50 ft | 18 kts | 285° |
| 2026-04-28 17:53 | 48.64672 | -123.41881 | 53 ft | 20 kts | 285° |
| 2026-04-28 17:53 | 48.64707 | -123.42065 | 51 ft | 13 kts | 286° |
| 2026-04-28 17:53 | 48.64695 | -123.42175 | 54 ft | 11 kts | 229° |
| 2026-04-28 17:53 | 48.64614 | -123.42255 | 55 ft | 20 kts | 198° |
| 2026-04-28 17:54 | 48.64448 | -123.42328 | 54 ft | 27 kts | 195° |
| 2026-04-28 17:54 | 48.64280 | -123.42394 | 54 ft | 23 kts | 189° |
| 2026-04-28 17:54 | 48.64163 | -123.42440 | 55 ft | 16 kts | 208° |
| 2026-04-28 17:54 | 48.64127 | -123.42573 | 53 ft | 14 kts | 279° |
| 2026-04-28 17:55 | 48.64145 | -123.42717 | 54 ft | 14 kts | 281° |
| 2026-04-28 17:55 | 48.64169 | -123.42808 | 56 ft | 7 kts | 302° |
| 2026-04-28 17:55 | 48.64160 | -123.42872 | 55 ft | 7 kts | 230° |
| 2026-04-28 17:55 | 48.64121 | -123.42903 | 54 ft | 5 kts | 192° |
| 2026-04-28 17:56 | 48.64101 | -123.42909 | 49 ft | 2 kts | 194° |
| 2026-04-28 17:56 | 48.64096 | -123.42912 | 52 ft | 0 kts | 195° |